• Join FlightAware (Why Join?)
  • Login
  • US Flag 
Rudolph Flight #1: Arrived! 
03:06AM EST


 

Airport Tracker/Info


-or-


 

Live Flight TrackerFlight Track Log ✈ N508QS ✈ 27-May-2013 ✈ KORL - KATL

Flight Track Log - Related Links

Times and Time Zones

All times are in EDT time to prevent confusion due to time zone crossing. See the N508QS flight status page for this flight to view local times or setup timezone preferences in your user account.

Time Position Orientation Groundspeed Altitude Reporting Facility
EDT Latitude Longitude Course Direction KTS MPH feet Rate Location/Type
04:46PM 28.5500 -81.3167 60° Northeast 174 200 900  Level Orlando TRACON
04:46PM 28.5667 -81.2833 60° Northeast 182 209 1,500 2,460 Climbing Orlando TRACON
04:47PM 28.6167 -81.2833 360° North 224 258 4,900 3,360 Climbing Orlando TRACON
04:48PM 28.6431 -81.3053 324° Northwest 270 311 6,500 3,060 Climbing Jacksonville Center
04:49PM 28.7064 -81.3589 323° Northwest 295 339 9,500 2,760 Climbing Jacksonville Center
04:50PM 28.7942 -81.3717 353° North 295 339 12,100 2,460 Climbing Jacksonville Center
04:51PM 28.8947 -81.4033 345° North 323 372 14,500 2,400 Climbing Jacksonville Center
04:52PM 28.9972 -81.4325 346° North 362 417 17,000 2,400 Climbing Jacksonville Center
04:53PM 29.1019 -81.4667 344° North 376 433 19,300 2,400 Climbing Jacksonville Center
04:55PM 29.3133 -81.5231 347° North 384 442 24,200 2,460 Climbing Jacksonville Center
04:56PM 29.4244 -81.5503 348° North 389 448 26,700 2,460 Climbing Jacksonville Center
04:57PM 29.5417 -81.5819 347° North 410 472 29,200 2,460 Climbing Jacksonville Center
04:58PM 29.6631 -81.6092 349° North 425 489 31,700 2,340 Climbing Jacksonville Center
04:59PM 29.7864 -81.6361 349° North 437 503 33,900 1,620 Climbing Jacksonville Center
05:00PM 29.9156 -81.5986 14° North 451 519 35,000 540 Climbing Jacksonville Center
05:01PM 30.0294 -81.5250 29° Northeast 451 519 35,000  Level Jacksonville Center
05:02PM 30.1394 -81.4561 28° Northeast 451 519 35,000  Level Jacksonville Center
05:03PM 30.2558 -81.4089 19° North 445 512 35,000  Level Jacksonville Center
05:04PM 30.3669 -81.4528 341° North 403 464 35,000  Level Jacksonville Center
05:05PM 30.4617 -81.5164 330° Northwest 414 476 35,000  Level Jacksonville Center
05:06PM 30.5667 -81.5850 331° Northwest 414 476 35,000  Level Jacksonville Center
05:07PM 30.6678 -81.6561 329° Northwest 425 489 35,000  Level Jacksonville Center
05:08PM 30.7728 -81.7247 331° Northwest 425 489 35,000  Level Jacksonville Center
05:09PM 30.8778 -81.7889 332° Northwest 425 489 35,000  Level Jacksonville Center
05:10PM 30.9806 -81.8556 331° Northwest 425 489 35,000  Level Jacksonville Center
05:11PM 31.0856 -81.9222 331° Northwest 425 489 35,000  Level Jacksonville Center
05:12PM 31.1944 -81.9917 331° Northwest 425 489 35,000  Level Jacksonville Center
05:13PM 31.3036 -82.0611 331° Northwest 430 495 35,000  Level Jacksonville Center
05:14PM 31.4186 -82.1064 341° North 435 501 35,000  Level Jacksonville Center
05:15PM 31.5400 -82.1417 346° North 442 509 35,000  Level Jacksonville Center
05:16PM 31.6592 -82.1725 348° North 430 495 35,000  Level Jacksonville Center
05:17PM 31.7744 -82.2425 333° Northwest 420 483 35,000  Level Jacksonville Center
05:20PM 32.0978 -82.4819 328° Northwest 437 503 35,000  Level Atlanta Center
05:21PM 32.1989 -82.5564 328° Northwest 437 503 35,000 -540 Level Atlanta Center
05:22PM 32.2958 -82.6383 324° Northwest 431 496 34,000 -660 Descending Atlanta Center
05:23PM 32.3783 -82.7428 313° West 426 490 33,800 -540 Descending Atlanta Center
05:24PM 32.4608 -82.8450 314° West 426 490 33,000 -1,020 Descending Atlanta Center
05:25PM 32.5433 -82.9497 313° West 426 490 31,800 -1,740 Descending Atlanta Center
05:26PM 32.6339 -83.0644 313° West 454 522 29,600 -2,280 Descending Atlanta Center
05:27PM 32.7225 -83.1772 313° West 461 531 27,300 -2,340 Descending Atlanta Center
05:28PM 32.8089 -83.2850 314° West 461 531 25,000 -2,280 Descending Atlanta Center
05:29PM 32.8867 -83.3858 313° West 453 521 22,800 -2,220 Descending Atlanta Center
05:30PM 32.9644 -83.4867 313° West 427 491 20,600 -2,100 Descending Atlanta Center
05:31PM 33.0400 -83.5853 312° West 411 473 18,600 -1,980 Descending Atlanta Center
05:32PM 33.1047 -83.6644 314° West 389 448 16,700 -1,980 Descending Atlanta Center
05:32PM 33.1333 -83.7000 314° West 376 433 16,000 -1,920 Descending Atlanta TRACON
05:33PM 33.2167 -83.8000 315° West 370 426 14,000 -960 Descending Atlanta TRACON
05:34PM 33.2833 -83.9000 309° West 394 453 14,000  Level Atlanta TRACON
05:35PM 33.3119 -83.9519 303° West 389 448 14,000  Level Atlanta Center
05:36PM 33.3850 -84.0636 308° West 395 455 14,000 -60 Level Atlanta Center
05:37PM 33.4644 -84.1533 317° Northwest 395 455 13,900 -900 Descending Atlanta Center
05:38PM 33.5583 -84.2233 328° Northwest 393 452 12,200 -960 Descending Atlanta Center
05:39PM 33.6375 -84.2808 329° Northwest 365 420 12,000 -180 Descending Atlanta Center
05:39PM 33.6667 -84.3000 331° Northwest 283 326 12,000 -360 Level Atlanta TRACON
05:40PM 33.7167 -84.3500 320° Northwest 261 300 11,500 -900 Descending Atlanta TRACON
05:41PM 33.7333 -84.4333 284° West 241 277 10,200 -1,320 Descending Atlanta TRACON
05:42PM 33.7333 -84.5000 270° West 235 270 8,900 -1,740 Descending Atlanta TRACON
05:43PM 33.7333 -84.5833 270° West 237 273 6,800 -2,400 Descending Atlanta TRACON
05:44PM 33.7167 -84.6500 253° West 229 264 4,400 -1,500 Descending Atlanta TRACON
05:45PM 33.6833 -84.6333 157° South 187 215 4,000 -660 Descending Atlanta TRACON
05:46PM 33.6500 -84.5833 129° Southeast 195 224 3,100 -840 Descending Atlanta TRACON
05:47PM 33.6500 -84.5167 90° East 185 213 2,400 -780 Descending Atlanta TRACON
05:48PM 33.6500 -84.4667 90° East 134 154 1,600 -840 Descending Atlanta TRACON
05:50PM 33.6367 -84.4279 64° Northeast  Level Estimated
05:57PM 33.6367 -84.4279 64° Northeast  Level Estimated
05:58PM 33.6367 -84.4279 64° Northeast  Level Estimated